Time;durP1;ratioP1;P1;durP2;ratioP2;P2;SDS_P1;SDS_P2;PMS_P1;PMS_P2;Temp;Humidity;BMP_temperature;BMP_pressure;BME280_temperature;BME280_humidity;BME280_pressure;Samples;Min_cycle;Max_cycle;Signal;HPM_P1;HPM_P2
2021/08/12 00:02:25;;;;;;;;;7.00;6.75;;;;;25.33;47.21;101521.22;5037695;28;51112;-61
2021/08/12 00:04:51;;;;;;;;;5.75;5.75;;;;;25.32;47.09;101531.47;5037553;28;52016;-62
2021/08/12 00:07:16;;;;;;;;;6.25;4.75;;;;;25.33;47.33;101529.56;5037797;28;51270;-62
2021/08/12 00:09:42;;;;;;;;;5.00;5.00;;;;;25.33;47.27;101519.31;5037833;28;51200;-62
2021/08/12 00:12:07;;;;;;;;;9.00;7.50;;;;;25.34;47.26;101525.69;5037257;28;51379;-62
2021/08/12 00:14:33;;;;;;;;;9.25;8.00;;;;;25.33;47.29;101516.53;5036439;28;51021;-61
2021/08/12 00:16:58;;;;;;;;;7.75;6.50;;;;;25.34;47.12;101511.81;5037541;28;50939;-61
2021/08/12 00:19:24;;;;;;;;;6.75;6.75;;;;;25.35;47.33;101518.22;5037139;28;50989;-62
2021/08/12 00:21:49;;;;;;;;;8.00;6.00;;;;;25.35;47.20;101518.22;5036334;28;51296;-62
2021/08/12 00:24:15;;;;;;;;;6.25;6.25;;;;;25.35;46.95;101521.84;5037378;28;51364;-62
2021/08/12 00:26:41;;;;;;;;;8.00;7.00;;;;;25.34;47.16;101514.59;5037043;28;51221;-62
2021/08/12 00:29:07;;;;;;;;;7.50;6.50;;;;;25.34;47.33;101511.81;5037270;28;51053;-63
2021/08/12 00:31:33;;;;;;;;;8.25;6.75;;;;;25.34;47.05;101509.06;5036162;28;51054;-61
2021/08/12 00:33:59;;;;;;;;;8.25;6.75;;;;;25.35;47.30;101509.91;5036806;28;51974;-62
2021/08/12 00:36:24;;;;;;;;;8.00;7.00;;;;;25.34;47.12;101509.06;5036844;28;51106;-61
2021/08/12 00:38:50;;;;;;;;;9.00;8.00;;;;;25.35;47.12;101509.91;5037055;28;51130;-61
2021/08/12 00:41:15;;;;;;;;;6.50;6.50;;;;;25.35;47.14;101507.97;5037418;28;51323;-62
2021/08/12 00:43:41;;;;;;;;;9.50;8.00;;;;;25.33;47.11;101505.44;5036678;28;51023;-61
2021/08/12 00:46:06;;;;;;;;;6.75;6.50;;;;;25.35;47.16;101512.66;5036780;28;51118;-61
2021/08/12 00:48:31;;;;;;;;;7.00;5.25;;;;;25.34;46.95;101503.50;5036483;28;51097;-62
2021/08/12 00:50:58;;;;;;;;;7.00;6.00;;;;;25.35;46.86;101509.91;5036502;28;51182;-61
2021/08/12 00:53:23;;;;;;;;;5.75;5.25;;;;;25.35;47.09;101502.41;5036297;28;52063;-62
2021/08/12 00:55:49;;;;;;;;;4.75;4.75;;;;;25.35;47.03;101493.25;5036379;28;51033;-62
2021/08/12 00:58:16;;;;;;;;;8.50;6.50;;;;;25.35;47.23;101493.25;5015449;28;51328;-62
2021/08/12 01:00:43;;;;;;;;;5.75;5.75;;;;;25.33;47.32;101486.03;5017254;28;50914;-61
2021/08/12 01:03:12;;;;;;;;;7.75;6.25;;;;;25.35;47.23;101487.72;5016314;28;52051;-62
2021/08/12 01:05:52;;;;;;;;;6.75;5.75;;;;;25.33;46.96;101486.03;5016981;28;51086;-62
2021/08/12 01:08:35;;;;;;;;;7.00;5.25;;;;;25.33;46.93;101486.03;5017159;28;51219;-62
2021/08/12 01:11:15;;;;;;;;;10.75;7.25;;;;;25.33;46.88;101490.72;5016606;28;51237;-62
2021/08/12 01:14:13;;;;;;;;;5.50;5.50;;;;;25.32;47.13;101484.34;5016544;28;51002;-62
2021/08/12 01:16:46;;;;;;;;;7.25;7.25;;;;;25.33;47.09;101491.56;5016762;28;50952;-62
2021/08/12 01:19:45;;;;;;;;;7.00;6.50;;;;;25.33;46.97;101496.28;5015999;28;51108;-62
2021/08/12 01:22:13;;;;;;;;;7.75;6.00;;;;;25.32;46.83;101497.31;5016247;28;51170;-62
2021/08/12 01:24:45;;;;;;;;;6.00;6.00;;;;;25.32;47.20;101500.09;5015970;28;51100;-62
2021/08/12 01:27:13;;;;;;;;;8.75;7.00;;;;;25.31;46.91;101499.25;5027733;28;50997;-62
2021/08/12 01:30:03;;;;;;;;;6.25;4.50;;;;;25.32;46.91;101500.09;5036756;28;51507;-62
2021/08/12 01:32:52;;;;;;;;;6.50;6.00;;;;;25.31;47.10;101498.41;5036618;28;50900;-63
2021/08/12 01:35:20;;;;;;;;;7.25;7.25;;;;;25.30;47.08;101493.97;5034815;28;54281;-62
2021/08/12 01:37:50;;;;;;;;;6.25;6.00;;;;;25.31;46.94;101493.72;5034929;28;51366;-62
2021/08/12 01:40:19;;;;;;;;;8.50;7.00;;;;;25.31;46.85;101490.09;5036193;28;51145;-62
2021/08/12 01:42:46;;;;;;;;;6.25;5.00;;;;;25.30;47.07;101497.56;5036321;28;51001;-62
2021/08/12 01:45:14;;;;;;;;;8.25;7.75;;;;;25.30;47.19;101497.56;5035799;28;51081;-62
2021/08/12 01:47:41;;;;;;;;;8.50;8.00;;;;;25.29;47.23;101495.88;5035914;28;51116;-61
2021/08/12 01:50:08;;;;;;;;;4.25;4.25;;;;;25.29;46.86;101503.34;5035894;28;51188;-62
2021/08/12 01:52:36;;;;;;;;;6.50;6.25;;;;;25.28;46.88;101496.97;5036406;28;50884;-61
2021/08/12 01:55:03;;;;;;;;;7.50;7.50;;;;;25.30;47.12;101499.50;5035305;28;51819;-62
2021/08/12 01:57:30;;;;;;;;;6.50;5.75;;;;;25.29;46.82;101498.66;5035732;28;51194;-61
2021/08/12 01:59:57;;;;;;;;;5.50;5.00;;;;;25.30;47.15;101496.72;5034914;28;51075;-62
2021/08/12 02:02:24;;;;;;;;;6.50;6.50;;;;;25.30;46.96;101505.88;5035850;28;50963;-62
2021/08/12 02:04:52;;;;;;;;;7.00;6.25;;;;;25.29;47.21;101498.66;5035715;28;52077;-62
2021/08/12 02:07:18;;;;;;;;;9.00;7.00;;;;;25.29;47.08;101501.44;5035932;28;51464;-62
2021/08/12 02:09:43;;;;;;;;;7.75;7.25;;;;;25.28;46.93;101502.53;5036046;28;51212;-62
2021/08/12 02:12:09;;;;;;;;;7.75;7.75;;;;;25.29;47.09;101503.34;5036090;28;51027;-62
2021/08/12 02:14:35;;;;;;;;;7.25;7.25;;;;;25.29;47.21;101497.81;5035451;28;51043;-62
2021/08/12 02:17:01;;;;;;;;;9.50;8.25;;;;;25.29;47.44;101500.59;5035843;28;50922;-62
2021/08/12 02:19:26;;;;;;;;;9.25;8.75;;;;;25.29;47.23;101506.97;5035178;28;51172;-62
2021/08/12 02:22:07;;;;;;;;;9.75;7.50;;;;;25.29;47.09;101495.03;5036003;28;51162;-62
2021/08/12 02:25:13;;;;;;;;;8.50;5.50;;;;;25.28;47.00;101491.44;5035271;28;51116;-62
2021/08/12 02:27:42;;;;;;;;;11.50;8.75;;;;;25.28;47.10;101483.09;5035354;28;51069;-62
2021/08/12 02:30:10;;;;;;;;;7.50;6.50;;;;;25.28;47.20;101476.72;5035669;28;51192;-62
2021/08/12 02:32:36;;;;;;;;;7.75;6.50;;;;;25.28;47.15;101485.03;5035412;28;51104;-61
2021/08/12 02:35:03;;;;;;;;;8.25;7.75;;;;;25.28;47.27;101487.81;5035326;28;52016;-63
2021/08/12 02:37:32;;;;;;;;;9.00;9.00;;;;;25.28;47.14;101493.34;5035357;28;51088;-62
2021/08/12 02:39:58;;;;;;;;;10.00;8.25;;;;;25.28;47.15;101498.91;5035578;28;51090;-62
2021/08/12 02:42:24;;;;;;;;;10.25;8.25;;;;;25.27;47.16;101497.22;5034200;28;51468;-61
2021/08/12 02:44:52;;;;;;;;;11.25;7.00;;;;;25.25;47.36;101503.00;5035562;28;51321;-61
2021/08/12 02:47:20;;;;;;;;;7.25;7.25;;;;;25.26;47.26;101501.91;5035436;28;51473;-62
2021/08/12 02:49:49;;;;;;;;;8.25;8.00;;;;;25.27;47.39;101500.00;5035005;28;51007;-62
2021/08/12 02:52:15;;;;;;;;;7.25;6.25;;;;;25.25;47.19;101500.22;5035532;28;51161;-62
2021/08/12 02:54:44;;;;;;;;;6.25;6.00;;;;;25.25;47.41;101505.78;5035262;28;51113;-61
2021/08/12 02:57:10;;;;;;;;;8.50;8.50;;;;;25.25;47.13;101493.84;5035104;28;51428;-62
2021/08/12 02:59:36;;;;;;;;;7.00;7.00;;;;;25.23;47.03;101496.88;5035234;28;51127;-62
2021/08/12 03:02:03;;;;;;;;;8.50;7.75;;;;;25.25;47.25;101497.47;5035154;28;51432;-62
2021/08/12 03:04:29;;;;;;;;;8.25;8.00;;;;;25.25;47.51;101497.47;5035100;28;52130;-62
2021/08/12 03:06:57;;;;;;;;;7.50;7.00;;;;;25.24;47.40;101494.94;5037776;28;51146;-62
2021/08/12 03:09:25;;;;;;;;;8.00;8.00;;;;;25.25;47.32;101493.84;5038739;28;51177;-62
2021/08/12 03:11:53;;;;;;;;;7.75;7.75;;;;;25.24;47.08;101490.22;5038826;28;51212;-62
2021/08/12 03:14:19;;;;;;;;;6.50;6.50;;;;;25.24;47.20;101486.63;5038402;28;51425;-61
2021/08/12 03:16:45;;;;;;;;;7.00;6.50;;;;;25.23;47.46;101483.00;5038440;28;51129;-61
2021/08/12 03:19:10;;;;;;;;;9.50;7.75;;;;;25.24;47.25;101486.63;5037981;28;51097;-61
2021/08/12 03:21:36;;;;;;;;;6.25;5.25;;;;;25.23;47.40;101483.00;5038825;28;50982;-62
2021/08/12 03:24:04;;;;;;;;;10.00;7.00;;;;;25.23;47.38;101482.16;5038277;28;51699;-62
2021/08/12 03:26:31;;;;;;;;;8.00;8.00;;;;;25.23;47.30;101482.16;5038192;28;51251;-61
2021/08/12 03:28:56;;;;;;;;;9.00;9.00;;;;;25.24;47.23;101486.63;5037049;28;51115;-61
2021/08/12 03:31:21;;;;;;;;;7.50;7.00;;;;;25.22;47.42;101495.16;5038865;28;51103;-61
2021/08/12 03:33:46;;;;;;;;;11.25;7.25;;;;;25.22;47.21;101488.75;5037622;28;50977;-62
2021/08/12 03:36:12;;;;;;;;;8.00;7.00;;;;;25.23;47.41;101493.25;5038081;28;54715;-62
2021/08/12 03:38:37;;;;;;;;;11.00;7.75;;;;;25.22;47.36;101488.75;5037996;28;51054;-62
2021/08/12 03:41:04;;;;;;;;;6.75;5.75;;;;;25.22;47.19;101489.63;5038381;28;51291;-61
2021/08/12 03:43:30;;;;;;;;;6.75;5.00;;;;;25.21;47.19;101482.38;5038008;28;51811;-62
2021/08/12 03:45:55;;;;;;;;;7.50;5.50;;;;;25.22;47.44;101494.28;5038000;28;50998;-61
2021/08/12 03:48:21;;;;;;;;;8.00;6.75;;;;;25.22;47.36;101483.22;5037696;28;51223;-62
2021/08/12 03:50:46;;;;;;;;;9.00;7.50;;;;;25.21;47.14;101490.69;5037761;28;51175;-61
2021/08/12 03:53:11;;;;;;;;;8.00;6.00;;;;;25.20;47.30;101475.13;5037537;28;56198;-61
2021/08/12 03:55:37;;;;;;;;;7.00;5.00;;;;;25.20;47.57;101472.38;5037944;28;51143;-62
2021/08/12 03:58:02;;;;;;;;;6.50;6.50;;;;;25.19;47.28;101475.38;5037578;28;51189;-61
2021/08/12 04:00:28;;;;;;;;;9.00;8.00;;;;;25.20;47.35;101479.84;5038209;28;51637;-62
2021/08/12 04:02:53;;;;;;;;;7.75;7.00;;;;;25.20;47.51;101472.38;5037139;28;51066;-62
2021/08/12 04:05:18;;;;;;;;;6.00;6.00;;;;;25.19;47.19;101473.44;5037802;28;51056;-63
2021/08/12 04:07:44;;;;;;;;;5.75;5.75;;;;;25.18;47.34;101477.31;5037712;28;51165;-61
2021/08/12 04:10:10;;;;;;;;;7.00;7.00;;;;;25.19;47.46;101476.22;5037833;28;51014;-61
2021/08/12 04:12:35;;;;;;;;;8.00;7.75;;;;;25.19;47.30;101476.22;5037314;28;52120;-62
2021/08/12 04:15:01;;;;;;;;;5.75;5.75;;;;;25.19;47.26;101473.44;5037708;28;51085;-61
2021/08/12 04:17:26;;;;;;;;;5.75;5.00;;;;;25.18;47.61;101465.38;5036725;28;51005;-61
2021/08/12 04:19:51;;;;;;;;;7.00;7.00;;;;;25.18;47.42;101471.75;5037367;28;51271;-62
2021/08/12 04:22:17;;;;;;;;;8.50;6.25;;;;;25.18;47.60;101476.47;5037433;28;51691;-62
2021/08/12 04:24:42;;;;;;;;;10.75;7.00;;;;;25.17;47.28;101467.31;5037790;28;50948;-61
2021/08/12 04:27:07;;;;;;;;;5.25;5.00;;;;;25.18;47.38;101466.22;5036030;28;51097;-61
2021/08/12 04:29:33;;;;;;;;;6.75;6.75;;;;;25.17;47.38;101458.97;5037717;28;51006;-61
2021/08/12 04:31:58;;;;;;;;;5.25;4.50;;;;;25.18;47.09;101468.16;5037039;28;52134;-62
2021/08/12 04:34:23;;;;;;;;;6.50;5.00;;;;;25.17;47.15;101461.75;5036911;28;50875;-62
2021/08/12 04:36:49;;;;;;;;;9.00;5.25;;;;;25.17;47.67;101458.97;5037360;28;51360;-62
2021/08/12 04:39:14;;;;;;;;;5.00;5.00;;;;;25.17;47.29;101458.16;5036090;28;51226;-61
2021/08/12 04:41:39;;;;;;;;;7.00;6.00;;;;;25.16;47.47;101454.53;5037091;28;51664;-62
2021/08/12 04:44:05;;;;;;;;;4.50;4.50;;;;;25.16;47.38;101460.06;5037440;28;51011;-61
2021/08/12 04:46:30;;;;;;;;;6.25;5.25;;;;;25.16;47.43;101457.31;5037162;28;51131;-61
2021/08/12 04:48:56;;;;;;;;;6.00;6.00;;;;;25.16;47.36;101457.31;5037006;28;51018;-61
2021/08/12 04:51:21;;;;;;;;;7.00;5.75;;;;;25.15;47.52;101455.63;5036940;28;51996;-61
2021/08/12 04:53:47;;;;;;;;;5.50;5.50;;;;;25.15;47.37;101461.16;5037299;28;51037;-61
2021/08/12 04:56:12;;;;;;;;;6.25;5.25;;;;;25.16;47.23;101464.78;5037045;28;51033;-61
2021/08/12 04:58:37;;;;;;;;;4.75;4.75;;;;;25.16;46.99;101462.84;5037073;28;51062;-61
2021/08/12 05:01:03;;;;;;;;;6.00;5.25;;;;;25.15;47.37;101455.63;5036705;28;51042;-61
2021/08/12 05:03:28;;;;;;;;;9.00;6.50;;;;;25.14;47.41;101456.69;5036617;28;51110;-61
2021/08/12 05:06:04;;;;;;;;;7.50;7.50;;;;;25.14;47.17;101456.69;5037015;28;51112;-62
2021/08/12 05:08:30;;;;;;;;;7.25;5.75;;;;;25.14;47.39;101465.00;5036928;28;51027;-62
2021/08/12 05:10:56;;;;;;;;;6.00;5.00;;;;;25.13;47.32;101457.78;5036762;28;51751;-62
2021/08/12 05:13:21;;;;;;;;;6.00;5.00;;;;;25.13;47.37;101457.78;5036520;28;50957;-61
2021/08/12 05:15:47;;;;;;;;;5.50;5.50;;;;;25.13;47.10;101457.78;5036705;28;50943;-61
2021/08/12 05:18:12;;;;;;;;;6.50;5.50;;;;;25.14;47.32;101453.09;5036362;28;51142;-61
2021/08/12 05:20:37;;;;;;;;;6.50;6.00;;;;;25.13;47.33;101457.78;5035920;28;60282;-61
2021/08/12 05:23:04;;;;;;;;;4.75;4.75;;;;;25.12;47.41;101456.09;5036584;28;51024;-61
2021/08/12 05:25:29;;;;;;;;;6.50;5.00;;;;;25.13;47.39;101460.56;5036319;28;51130;-61
2021/08/12 05:27:54;;;;;;;;;7.25;5.25;;;;;25.13;47.17;101462.50;5036351;28;51322;-61
2021/08/12 05:30:20;;;;;;;;;6.75;5.50;;;;;25.12;47.27;101467.19;5035033;28;51909;-61
2021/08/12 05:32:46;;;;;;;;;5.00;4.00;;;;;25.13;47.30;101463.34;5036180;28;51251;-60
2021/08/12 05:35:11;;;;;;;;;7.00;5.25;;;;;25.12;47.48;101471.88;5036345;28;51114;-61
2021/08/12 05:37:36;;;;;;;;;6.75;5.50;;;;;25.12;47.34;101471.88;5036449;28;51030;-60
2021/08/12 05:40:02;;;;;;;;;5.75;5.25;;;;;25.11;47.08;101468.25;5036141;28;51084;-60
2021/08/12 05:42:28;;;;;;;;;7.50;6.00;;;;;25.11;47.34;101471.00;5036406;28;51010;-61
2021/08/12 05:44:53;;;;;;;;;4.25;4.25;;;;;25.12;47.69;101469.97;5036406;28;51049;-61
2021/08/12 05:47:18;;;;;;;;;6.50;5.50;;;;;25.12;47.32;101480.22;5036335;28;50959;-61
2021/08/12 05:49:43;;;;;;;;;6.00;5.25;;;;;25.11;47.27;101471.00;5033948;28;54773;-61
2021/08/12 05:52:09;;;;;;;;;6.75;6.75;;;;;25.12;47.39;101478.28;5036205;28;50931;-61
2021/08/12 05:54:34;;;;;;;;;5.00;5.00;;;;;25.13;47.21;101474.41;5036170;28;50896;-63
2021/08/12 05:56:59;;;;;;;;;5.75;5.75;;;;;25.13;47.31;101470.81;5035949;28;50865;-60
2021/08/12 05:59:25;;;;;;;;;5.00;5.00;;;;;25.12;47.29;101469.97;5035061;28;63222;-60
2021/08/12 06:01:50;;;;;;;;;6.25;5.50;;;;;25.13;47.08;101473.56;5035566;28;50963;-61
2021/08/12 06:04:15;;;;;;;;;5.75;5.00;;;;;25.14;47.21;101473.34;5034398;28;51067;-61
2021/08/12 06:06:41;;;;;;;;;5.50;4.25;;;;;25.13;47.21;101468.88;5036231;28;50945;-60
2021/08/12 06:09:06;;;;;;;;;7.00;7.00;;;;;25.13;47.39;101482.75;5035388;28;51010;-60
2021/08/12 06:11:31;;;;;;;;;5.75;5.00;;;;;25.14;47.66;101495.50;5035882;28;51061;-61
2021/08/12 06:13:57;;;;;;;;;5.00;5.00;;;;;25.14;47.21;101486.34;5035853;28;51465;-60
2021/08/12 06:16:22;;;;;;;;;6.25;6.25;;;;;25.13;47.24;101488.28;5035915;28;51111;-61
2021/08/12 06:18:47;;;;;;;;;4.50;4.50;;;;;25.13;47.39;101484.66;5035198;28;50952;-60
2021/08/12 06:21:14;;;;;;;;;5.00;5.00;;;;;25.14;47.14;101486.34;5035430;28;51001;-61
2021/08/12 06:23:40;;;;;;;;;3.50;3.00;;;;;25.13;47.33;101479.13;5035655;28;51160;-61
2021/08/12 06:26:05;;;;;;;;;5.75;5.00;;;;;25.13;47.37;101485.50;5035404;28;51405;-61
2021/08/12 06:28:31;;;;;;;;;5.75;5.00;;;;;25.13;47.25;101485.50;5035530;28;51000;-62
2021/08/12 06:30:56;;;;;;;;;5.00;4.00;;;;;25.13;47.55;101485.50;5035775;28;51149;-61
2021/08/12 06:33:21;;;;;;;;;5.25;5.25;;;;;25.14;47.05;101483.59;5035410;28;50928;-62
2021/08/12 06:35:47;;;;;;;;;5.50;5.50;;;;;25.15;47.28;101485.25;5035791;28;50967;-62
2021/08/12 06:38:12;;;;;;;;;7.00;7.00;;;;;25.16;47.11;101478.63;5033569;28;52073;-63
2021/08/12 06:40:38;;;;;;;;;5.00;5.00;;;;;25.17;47.23;101483.94;5036350;28;51206;-62
2021/08/12 06:43:03;;;;;;;;;6.00;6.00;;;;;25.19;47.12;101489.25;5038721;28;51194;-61
2021/08/12 06:45:28;;;;;;;;;5.50;5.25;;;;;25.20;47.30;101486.22;5037981;28;51114;-62
2021/08/12 06:47:54;;;;;;;;;5.00;5.00;;;;;25.22;47.20;101483.22;5038225;28;51696;-62
2021/08/12 06:50:21;;;;;;;;;6.75;5.00;;;;;25.23;47.25;101491.31;5038527;28;51593;-62
2021/08/12 06:52:47;;;;;;;;;7.50;6.00;;;;;25.25;47.41;101497.47;5039035;28;51236;-61
2021/08/12 06:55:12;;;;;;;;;8.00;5.75;;;;;25.27;47.18;101494.44;5039066;28;51139;-62
2021/08/12 06:57:38;;;;;;;;;6.25;6.25;;;;;25.28;47.22;101501.69;5038587;28;51850;-61
2021/08/12 07:00:05;;;;;;;;;6.00;6.00;;;;;25.31;47.14;101501.19;5038705;28;51081;-62
2021/08/12 07:02:30;;;;;;;;;6.75;6.00;;;;;25.32;47.26;101498.19;5038578;28;51069;-62
2021/08/12 07:04:56;;;;;;;;;7.00;6.00;;;;;25.31;47.08;101501.19;5039006;28;51024;-61
2021/08/12 07:07:21;;;;;;;;;5.00;5.00;;;;;25.29;47.05;101493.13;5038144;28;56629;-61
2021/08/12 07:09:47;;;;;;;;;5.25;5.25;;;;;25.30;47.05;101488.41;5038807;28;50959;-61
2021/08/12 07:12:13;;;;;;;;;8.25;6.50;;;;;25.30;47.10;101489.25;5037309;28;51265;-62
2021/08/12 07:14:38;;;;;;;;;6.25;5.00;;;;;25.32;46.76;101483.47;5038822;28;51072;-61
2021/08/12 07:17:04;;;;;;;;;7.00;6.00;;;;;25.36;47.05;101486.63;5038010;28;51071;-62
2021/08/12 07:19:29;;;;;;;;;6.25;5.25;;;;;25.38;47.16;101474.19;5038169;28;51058;-62
2021/08/12 07:21:54;;;;;;;;;5.00;5.00;;;;;25.40;46.86;101479.50;5038523;28;50998;-62
2021/08/12 07:24:20;;;;;;;;;7.25;5.75;;;;;25.40;46.91;101482.28;5038588;28;50888;-62
2021/08/12 07:26:49;;;;;;;;;5.50;4.75;;;;;25.39;46.90;101478.66;5037836;28;51042;-63
2021/08/12 07:29:14;;;;;;;;;5.25;5.25;;;;;25.40;46.88;101483.13;5038356;28;51469;-61
2021/08/12 07:31:41;;;;;;;;;6.50;6.00;;;;;25.44;46.97;101486.28;5038015;28;51049;-62
2021/08/12 07:34:06;;;;;;;;;6.75;6.75;;;;;25.48;46.85;101484.69;5038151;28;51090;-62
2021/08/12 07:36:34;;;;;;;;;6.50;4.00;;;;;25.50;46.56;101480.59;5037713;28;51096;-63
2021/08/12 07:39:00;;;;;;;;;8.75;6.00;;;;;25.53;46.63;101480.13;5037736;28;51050;-62
2021/08/12 07:41:25;;;;;;;;;8.00;6.00;;;;;25.57;46.92;101474.94;5037873;28;51025;-62
2021/08/12 07:43:50;;;;;;;;;8.00;7.00;;;;;25.59;46.47;101479.16;5038392;28;51058;-62
2021/08/12 07:46:16;;;;;;;;;6.25;6.25;;;;;25.62;46.77;101481.44;5037863;28;51728;-62
2021/08/12 07:48:41;;;;;;;;;6.75;5.25;;;;;25.64;46.51;101481.22;5037356;28;51122;-62
2021/08/12 07:51:07;;;;;;;;;5.00;5.00;;;;;25.66;46.30;101473.50;5037871;28;51103;-63
2021/08/12 07:53:32;;;;;;;;;7.00;6.00;;;;;25.65;46.26;101469.03;5037049;28;51200;-62
2021/08/12 07:55:58;;;;;;;;;7.25;7.00;;;;;25.67;46.64;101475.16;5037403;28;50923;-63
2021/08/12 07:58:24;;;;;;;;;6.25;6.25;;;;;25.69;46.42;101472.16;5037115;28;51158;-62
2021/08/12 08:00:49;;;;;;;;;6.00;6.00;;;;;25.71;46.44;101478.31;5037628;28;51046;-62
2021/08/12 08:03:15;;;;;;;;;8.50;7.25;;;;;25.71;46.50;101462.53;5037460;28;50954;-62
2021/08/12 08:05:41;;;;;;;;;7.00;5.75;;;;;25.71;46.19;101473.63;5037098;28;51094;-63
2021/08/12 08:08:06;;;;;;;;;6.00;5.00;;;;;25.73;46.37;101470.59;5037382;28;51210;-62
2021/08/12 08:10:32;;;;;;;;;5.25;5.25;;;;;25.73;46.52;101468.66;5037835;28;51123;-62
2021/08/12 08:12:57;;;;;;;;;6.50;6.50;;;;;25.72;46.37;101466.97;5037699;28;51031;-62
2021/08/12 08:15:23;;;;;;;;;9.75;7.25;;;;;25.72;46.25;101464.22;5037085;28;50966;-63
2021/08/12 08:17:49;;;;;;;;;7.00;7.00;;;;;25.73;46.33;101473.38;5037035;28;51069;-62
2021/08/12 08:20:15;;;;;;;;;8.00;5.50;;;;;25.72;46.50;101466.13;5037319;28;50947;-62
2021/08/12 08:22:41;;;;;;;;;9.25;7.50;;;;;25.73;46.08;101460.34;5037648;28;50955;-61
2021/08/12 08:25:08;;;;;;;;;5.50;5.50;;;;;25.73;46.33;101465.06;5037237;28;51085;-62
2021/08/12 08:27:34;;;;;;;;;8.00;6.75;;;;;25.75;46.55;101465.69;5037187;28;51399;-64
2021/08/12 08:29:59;;;;;;;;;7.25;5.50;;;;;25.76;46.13;101470.13;5037287;28;51280;-61
2021/08/12 08:32:25;;;;;;;;;7.75;6.50;;;;;25.74;46.24;101467.59;5037464;28;51375;-62
2021/08/12 08:34:54;;;;;;;;;6.00;6.00;;;;;25.76;46.44;101467.34;5036975;28;52759;-64
2021/08/12 08:37:19;;;;;;;;;8.75;6.75;;;;;25.78;46.21;101462.41;5035617;28;51270;-62
2021/08/12 08:39:45;;;;;;;;;7.25;7.25;;;;;25.80;46.29;101460.22;5037042;28;51054;-62
2021/08/12 08:42:12;;;;;;;;;7.00;6.75;;;;;25.81;46.21;101461.91;5037177;28;51245;-61
2021/08/12 08:44:40;;;;;;;;;7.25;7.25;;;;;25.81;46.23;101459.97;5036996;28;51039;-62
2021/08/12 08:47:08;;;;;;;;;10.75;10.00;;;;;25.82;46.30;101463.59;5036803;28;51399;-63
2021/08/12 08:49:37;;;;;;;;;6.25;6.00;;;;;25.84;46.35;101469.75;5036668;28;51146;-61
2021/08/12 08:52:03;;;;;;;;;8.00;6.00;;;;;25.85;46.33;101477.00;5035709;28;51303;-61
2021/08/12 08:54:32;;;;;;;;;7.00;7.00;;;;;25.86;46.22;101465.66;5036574;28;53195;-62
2021/08/12 08:56:58;;;;;;;;;6.75;5.50;;;;;25.87;46.23;101470.13;5036362;28;51309;-64
2021/08/12 08:59:26;;;;;;;;;7.00;6.00;;;;;25.87;46.20;101475.66;5036675;28;51061;-62
2021/08/12 09:01:51;;;;;;;;;8.75;5.00;;;;;25.88;45.99;101482.91;5036437;28;50904;-62
2021/08/12 09:04:17;;;;;;;;;6.75;6.75;;;;;25.90;45.76;101482.66;5036152;28;50949;-62
2021/08/12 09:06:42;;;;;;;;;8.00;5.25;;;;;25.91;46.33;101484.34;5036525;28;51162;-62
2021/08/12 09:09:09;;;;;;;;;8.25;8.25;;;;;25.92;45.85;101480.47;5036223;28;50950;-62
2021/08/12 09:11:34;;;;;;;;;9.50;7.00;;;;;25.94;46.24;101485.78;5036505;28;51159;-62
2021/08/12 09:14:39;;;;;;;;;7.75;6.75;;;;;25.94;45.94;101483.84;5036155;28;50942;-62
2021/08/12 09:17:19;;;;;;;;;10.00;9.00;;;;;25.95;45.69;101482.78;5035667;28;51538;-61
2021/08/12 09:20:08;;;;;;;;;6.75;6.75;;;;;25.97;46.12;101482.53;5036121;28;51145;-62
2021/08/12 09:22:53;;;;;;;;;5.00;5.00;;;;;25.98;46.17;101482.28;5036348;28;50963;-62
2021/08/12 09:25:42;;;;;;;;;9.75;7.25;;;;;25.99;46.02;101489.53;5034700;28;52928;-62
2021/08/12 09:28:14;;;;;;;;;8.00;8.00;;;;;25.99;46.08;101478.41;5035755;28;51021;-62
2021/08/12 09:30:42;;;;;;;;;8.50;7.50;;;;;26.01;46.02;101470.69;5036202;28;51125;-62
2021/08/12 09:33:13;;;;;;;;;7.00;6.00;;;;;26.01;46.19;101476.25;5036132;28;51327;-62
2021/08/12 09:35:38;;;;;;;;;8.50;6.25;;;;;26.03;45.79;101485.16;5034525;28;51972;-61
2021/08/12 09:38:09;;;;;;;;;10.25;5.75;;;;;26.04;45.99;101478.50;5035781;28;51091;-61
2021/08/12 09:40:35;;;;;;;;;8.00;8.00;;;;;26.05;46.20;101476.59;5036110;28;51271;-62
2021/08/12 09:43:04;;;;;;;;;6.25;6.25;;;;;26.06;45.92;101476.38;5036017;28;51012;-61
2021/08/12 09:45:31;;;;;;;;;8.50;5.25;;;;;26.07;46.15;101474.44;5035634;28;51766;-61
2021/08/12 09:48:09;;;;;;;;;6.25;4.25;;;;;26.08;46.04;101473.34;5035457;28;51041;-61
2021/08/12 09:50:35;;;;;;;;;6.00;6.00;;;;;26.08;45.82;101476.13;5035495;28;50989;-61
2021/08/12 09:53:02;;;;;;;;;7.25;7.25;;;;;26.08;45.53;101476.13;5035328;28;51138;-61
2021/08/12 09:55:28;;;;;;;;;7.75;7.75;;;;;26.09;45.68;101470.31;5035588;28;53394;-61
2021/08/12 09:58:06;;;;;;;;;6.25;5.50;;;;;26.09;45.75;101464.75;5035383;28;51618;-61
2021/08/12 10:00:35;;;;;;;;;7.00;6.00;;;;;26.12;45.90;101466.19;5035581;28;51085;-60
2021/08/12 10:03:17;;;;;;;;;6.75;5.50;;;;;26.12;45.64;101466.19;5035138;28;51261;-61
2021/08/12 10:05:43;;;;;;;;;7.00;7.00;;;;;26.12;45.73;101455.94;5035489;28;51092;-61
2021/08/12 10:08:08;;;;;;;;;6.25;6.25;;;;;26.13;45.79;101457.63;5035522;28;51238;-61
2021/08/12 10:10:34;;;;;;;;;7.00;6.00;;;;;26.14;45.84;101461.22;5035456;28;51268;-61
2021/08/12 10:13:01;;;;;;;;;10.00;8.00;;;;;26.14;46.15;101459.28;5035651;28;51095;-61
2021/08/12 10:15:30;;;;;;;;;8.75;7.00;;;;;26.14;45.70;101464.84;5034567;28;52281;-61
2021/08/12 10:17:57;;;;;;;;;8.00;7.50;;;;;26.15;45.85;101465.69;5034982;28;51043;-62
2021/08/12 10:20:25;;;;;;;;;8.00;6.25;;;;;26.15;45.89;101455.44;5035329;28;51138;-62
2021/08/12 10:22:52;;;;;;;;;8.00;6.50;;;;;26.16;45.76;101456.31;5035480;28;51260;-62
2021/08/12 10:25:20;;;;;;;;;8.75;7.00;;;;;26.16;45.56;101451.59;5035163;28;52024;-62
2021/08/12 10:27:48;;;;;;;;;8.00;7.25;;;;;26.17;45.44;101458.81;5034739;28;51046;-61
2021/08/12 10:30:15;;;;;;;;;7.00;7.00;;;;;26.17;45.52;101453.28;5035117;28;51425;-62
2021/08/12 10:32:48;;;;;;;;;6.50;6.50;;;;;26.19;45.67;101450.25;5034643;28;51047;-61
2021/08/12 10:35:13;;;;;;;;;8.25;8.00;;;;;26.19;45.61;101450.25;5034871;28;51949;-62
2021/08/12 10:37:38;;;;;;;;;9.00;7.50;;;;;26.20;46.08;101454.72;5034738;28;51143;-62
2021/08/12 10:40:07;;;;;;;;;7.25;5.50;;;;;26.19;45.57;101451.09;5034829;28;51102;-62
2021/08/12 10:42:33;;;;;;;;;6.50;6.00;;;;;26.21;45.96;101452.78;5035078;28;51280;-62
2021/08/12 10:44:58;;;;;;;;;7.75;7.00;;;;;26.21;45.93;101448.06;5034447;28;50967;-61
2021/08/12 10:47:44;;;;;;;;;8.50;7.75;;;;;26.21;45.81;101439.72;5033474;28;51040;-61
2021/08/12 10:50:22;;;;;;;;;11.00;9.50;;;;;26.21;45.70;101448.06;5034790;28;51041;-62
2021/08/12 10:53:13;;;;;;;;;6.25;6.25;;;;;26.22;45.52;101448.91;5035134;28;51479;-62
2021/08/12 10:55:38;;;;;;;;;9.00;7.25;;;;;26.22;45.67;101452.53;5034467;28;52037;-61
2021/08/12 10:58:19;;;;;;;;;7.25;6.75;;;;;26.23;45.49;101447.81;5033926;28;51130;-61
2021/08/12 11:00:52;;;;;;;;;7.50;7.50;;;;;26.24;46.02;101444.78;5034829;28;51175;-63
2021/08/12 11:03:32;;;;;;;;;7.00;7.00;;;;;26.23;45.64;101439.47;5034668;28;51193;-62
2021/08/12 11:06:06;;;;;;;;;9.00;7.75;;;;;26.22;45.51;101438.63;5034190;28;51328;-61
2021/08/12 11:11:21;;;;;;;;;6.75;6.75;;;;;26.23;45.85;101443.09;5034532;28;50936;-61
2021/08/12 11:14:17;;;;;;;;;8.00;5.75;;;;;26.23;45.52;101445.03;5034754;28;51030;-62
2021/08/12 11:16:42;;;;;;;;;9.50;8.25;;;;;26.23;45.50;101445.88;5031096;28;51139;-61
2021/08/12 11:19:23;;;;;;;;;7.00;7.00;;;;;26.24;45.88;101441.16;5034053;28;51434;-61
2021/08/12 11:21:50;;;;;;;;;10.75;7.00;;;;;26.23;46.03;101440.31;5034192;28;51153;-61
2021/08/12 11:24:24;;;;;;;;;6.00;6.00;;;;;26.24;46.11;101433.69;5034392;28;51273;-60
2021/08/12 11:26:49;;;;;;;;;10.25;8.75;;;;;26.24;45.83;101435.59;5033579;28;51082;-61
2021/08/12 11:29:25;;;;;;;;;7.00;6.00;;;;;26.24;45.70;101425.34;5036821;28;51163;-61
2021/08/12 11:31:53;;;;;;;;;7.75;7.75;;;;;26.25;45.48;101428.97;5037652;28;51228;-62